createdAt,value
2022-09-09T00:00:55.417Z,94891.38
2022-09-09T00:03:33.420Z,94896.41
2022-09-09T00:06:03.254Z,94898.19
2022-09-09T00:08:55.936Z,94896.56
2022-09-09T00:11:44.913Z,94885.03
2022-09-09T00:14:21.291Z,94893.81
2022-09-09T00:16:55.090Z,94897.50
2022-09-09T00:19:22.130Z,94892.13
2022-09-09T00:22:00.667Z,94894.34
2022-09-09T00:24:33.038Z,94893.72
2022-09-09T00:27:11.422Z,94882.44
2022-09-09T00:30:04.979Z,94889.78
2022-09-09T00:32:36.587Z,94889.00
2022-09-09T00:35:16.835Z,94895.53
2022-09-09T00:37:45.374Z,94895.97
2022-09-09T00:40:41.988Z,94897.41
2022-09-09T00:43:23.635Z,94891.06
2022-09-09T00:45:56.302Z,94893.38
2022-09-09T00:48:53.545Z,94889.00
2022-09-09T00:51:41.972Z,94889.41
2022-09-09T00:54:30.382Z,94883.44
2022-09-09T00:57:05.353Z,94880.66
2022-09-09T00:59:47.172Z,94890.22
2022-09-09T01:02:26.420Z,94894.16
2022-09-09T01:04:53.209Z,94895.78
2022-09-09T01:07:20.400Z,94892.38
2022-09-09T01:09:52.771Z,94893.09
2022-09-09T01:12:35.170Z,94895.97
2022-09-09T01:15:01.614Z,94891.22
2022-09-09T01:17:39.332Z,94885.56
2022-09-09T01:20:20.899Z,94891.09
2022-09-09T01:23:00.709Z,94886.19
2022-09-09T01:25:44.505Z,94889.00
2022-09-09T01:28:27.480Z,94887.38
2022-09-09T01:30:59.739Z,94885.47
2022-09-09T01:33:31.268Z,94883.44
2022-09-09T01:36:16.213Z,94887.16
2022-09-09T01:38:49.546Z,94876.41
2022-09-09T01:41:17.638Z,94887.09
2022-09-09T01:44:01.707Z,94879.72
2022-09-09T01:46:30.702Z,94874.97
2022-09-09T01:49:00.107Z,94883.22
2022-09-09T01:51:27.773Z,94882.44
2022-09-09T01:53:54.738Z,94873.66
2022-09-09T01:56:33.478Z,94870.59
2022-09-09T01:59:22.673Z,94876.88
2022-09-09T02:02:04.865Z,94873.16
2022-09-09T02:04:37.018Z,94865.53
2022-09-09T02:07:19.495Z,94865.69
2022-09-09T02:09:50.784Z,94857.19
2022-09-09T02:12:22.716Z,94862.56
2022-09-09T02:15:00.194Z,94864.97
2022-09-09T02:17:39.227Z,94858.69
2022-09-09T02:20:15.688Z,94865.06
2022-09-09T02:22:54.902Z,94865.78
2022-09-09T02:25:26.976Z,94867.75
2022-09-09T02:28:01.152Z,94864.84
2022-09-09T02:30:31.890Z,94866.50
2022-09-09T02:33:02.430Z,94862.81
2022-09-09T02:35:46.110Z,94863.53
2022-09-09T02:38:17.164Z,94865.03
2022-09-09T02:40:54.779Z,94857.13
2022-09-09T02:43:21.580Z,94850.19
2022-09-09T02:46:14.215Z,94857.84
2022-09-09T02:49:04.497Z,94858.06
2022-09-09T02:51:46.103Z,94861.81
2022-09-09T02:54:33.015Z,94856.78
2022-09-09T02:57:07.380Z,94856.47
2022-09-09T02:59:38.559Z,94855.84
2022-09-09T03:02:05.937Z,94853.59
2022-09-09T03:04:33.168Z,94862.31
2022-09-09T03:07:00.555Z,94863.50
2022-09-09T03:09:27.435Z,94858.22
2022-09-09T03:11:55.967Z,94857.38
2022-09-09T03:14:26.101Z,94852.28
2022-09-09T03:16:54.538Z,94848.28
2022-09-09T03:19:22.090Z,94850.06
2022-09-09T03:21:50.388Z,94845.22
2022-09-09T03:24:17.479Z,94847.50
2022-09-09T03:26:47.200Z,94857.56
2022-09-09T03:29:17.491Z,94859.69
2022-09-09T03:31:45.199Z,94862.59
2022-09-09T03:34:12.470Z,94857.00
2022-09-09T03:36:39.037Z,94865.56
2022-09-09T03:39:05.915Z,94861.56
2022-09-09T03:41:32.482Z,94864.16
2022-09-09T03:44:00.893Z,94865.84
2022-09-09T03:46:30.840Z,94862.00
2022-09-09T03:48:58.268Z,94865.25
2022-09-09T03:51:25.458Z,94858.28
2022-09-09T03:53:52.047Z,94849.59
2022-09-09T03:56:18.765Z,94848.22
2022-09-09T03:58:45.817Z,94848.94
2022-09-09T04:01:14.756Z,94851.78
2022-09-09T04:03:43.422Z,94836.84
2022-09-09T04:06:12.763Z,94849.19
2022-09-09T04:08:39.575Z,94849.19
2022-09-09T04:11:07.389Z,94860.25
2022-09-09T04:13:36.328Z,94839.47
2022-09-09T04:16:04.843Z,94838.19
2022-09-09T04:18:33.267Z,94835.22
2022-09-09T04:21:01.098Z,94832.16
2022-09-09T04:23:30.458Z,94834.91
2022-09-09T04:25:59.782Z,94826.97
2022-09-09T04:28:30.237Z,94831.25
2022-09-09T04:30:57.930Z,94829.06
2022-09-09T04:33:28.242Z,94829.44
2022-09-09T04:35:55.002Z,94830.06
2022-09-09T04:38:24.238Z,94829.44
2022-09-09T04:40:52.879Z,94827.00
2022-09-09T04:43:23.181Z,94827.53
2022-09-09T04:45:54.588Z,94826.13
2022-09-09T04:48:25.384Z,94821.44
2022-09-09T04:50:59.582Z,94822.78
2022-09-09T04:53:27.067Z,94823.28
2022-09-09T04:56:18.169Z,94825.00
2022-09-09T04:58:49.950Z,94827.28
2022-09-09T05:01:21.999Z,94832.28
2022-09-09T05:03:50.446Z,94825.75
2022-09-09T05:06:22.480Z,94827.97
2022-09-09T05:08:52.729Z,94825.13
2022-09-09T05:11:25.188Z,94829.56
2022-09-09T05:13:54.688Z,94825.81
2022-09-09T05:16:22.302Z,94830.50
2022-09-09T05:18:51.626Z,94834.00
2022-09-09T05:21:21.037Z,94831.75
2022-09-09T05:23:48.269Z,94833.91
2022-09-09T05:26:18.099Z,94839.69
2022-09-09T05:28:47.289Z,94845.38
2022-09-09T05:31:16.034Z,94845.63
2022-09-09T05:33:46.961Z,94847.09
2022-09-09T05:36:16.596Z,94841.88
2022-09-09T05:38:43.986Z,94850.13
2022-09-09T05:41:12.272Z,94851.72
2022-09-09T05:43:39.825Z,94844.81
2022-09-09T05:46:28.670Z,94853.41
2022-09-09T05:48:56.533Z,94853.16
2022-09-09T05:51:33.448Z,94855.13
2022-09-09T05:54:05.210Z,94859.25
2022-09-09T05:56:34.972Z,94858.59
2022-09-09T05:59:01.922Z,94854.72
2022-09-09T06:01:34.102Z,94856.09
2022-09-09T06:04:02.700Z,94850.34
2022-09-09T06:06:37.462Z,94852.59
2022-09-09T06:09:12.645Z,94853.84
2022-09-09T06:11:42.616Z,94855.84
2022-09-09T06:14:10.212Z,94856.00
2022-09-09T06:16:43.207Z,94856.25
2022-09-09T06:19:16.486Z,94853.53
2022-09-09T06:21:45.246Z,94855.63
2022-09-09T06:24:14.730Z,94865.00
2022-09-09T06:26:42.048Z,94857.31
2022-09-09T06:29:11.240Z,94868.84
2022-09-09T06:31:38.457Z,94866.69
2022-09-09T06:34:14.432Z,94875.22
2022-09-09T06:36:46.858Z,94880.38
2022-09-09T06:39:15.105Z,94893.53
2022-09-09T06:41:43.730Z,94895.75
2022-09-09T06:44:35.246Z,94909.31
2022-09-09T06:47:03.246Z,94912.97
2022-09-09T06:49:29.976Z,94909.69
2022-09-09T06:51:56.698Z,94912.41
2022-09-09T06:54:24.730Z,94910.69
2022-09-09T06:56:52.066Z,94914.19
2022-09-09T06:59:22.926Z,94907.28
2022-09-09T07:01:55.570Z,94910.06
2022-09-09T07:04:23.016Z,94915.78
2022-09-09T07:06:49.659Z,94920.56
2022-09-09T07:09:23.241Z,94916.00
2022-09-09T07:11:56.127Z,94917.88
2022-09-09T07:14:23.921Z,94918.31
2022-09-09T07:16:59.787Z,94910.84
2022-09-09T07:19:27.647Z,94911.38
2022-09-09T07:21:55.625Z,94903.66
2022-09-09T07:24:24.634Z,94901.75
2022-09-09T07:26:53.031Z,94902.44
2022-09-09T07:29:21.017Z,94906.06
2022-09-09T07:31:49.546Z,94910.97
2022-09-09T07:34:21.080Z,94915.31
2022-09-09T07:36:48.004Z,94923.28
2022-09-09T07:39:15.875Z,94920.25
2022-09-09T07:41:49.163Z,94926.38
2022-09-09T07:44:24.320Z,94926.50
2022-09-09T07:46:57.765Z,94937.22
2022-09-09T07:49:32.916Z,94933.56
2022-09-09T07:52:01.386Z,94938.63
2022-09-09T07:54:28.748Z,94940.97
2022-09-09T07:56:55.435Z,94933.28
2022-09-09T07:59:25.284Z,94935.19
2022-09-09T08:01:56.472Z,94927.94
2022-09-09T08:04:29.013Z,94921.59
2022-09-09T08:07:01.947Z,94918.63
2022-09-09T08:09:30.554Z,94930.28
2022-09-09T08:12:34.906Z,94929.59
2022-09-09T08:15:03.713Z,94935.56
2022-09-09T08:17:33.875Z,94939.75
2022-09-09T08:20:06.818Z,94938.03
2022-09-09T08:22:35.343Z,94944.47
2022-09-09T08:25:03.253Z,94944.91
2022-09-09T08:27:33.164Z,94950.75
2022-09-09T08:30:00.017Z,94951.78
2022-09-09T08:32:27.762Z,94954.81
2022-09-09T08:34:54.854Z,94951.63
2022-09-09T08:37:23.903Z,94954.38
2022-09-09T08:39:54.004Z,94955.88
2022-09-09T08:42:39.298Z,94955.00
2022-09-09T08:45:36.579Z,94954.03
2022-09-09T08:48:30.545Z,94962.75
2022-09-09T08:51:02.878Z,94962.81
2022-09-09T08:53:41.890Z,94967.06
2022-09-09T08:56:14.949Z,94961.84
2022-09-09T08:58:53.544Z,94961.91
2022-09-09T09:01:54.026Z,94963.69
2022-09-09T09:04:57.094Z,94959.50
2022-09-09T09:07:56.037Z,94964.09
2022-09-09T09:10:45.614Z,94957.84
2022-09-09T09:13:22.084Z,94963.69
2022-09-09T09:16:01.386Z,94955.81
2022-09-09T09:18:29.033Z,94962.66
2022-09-09T09:21:15.620Z,94965.13
2022-09-09T09:24:02.354Z,94965.25
2022-09-09T09:26:34.758Z,94963.84
2022-09-09T09:29:10.947Z,94968.03
2022-09-09T09:31:37.689Z,94973.53
2022-09-09T09:34:04.303Z,94974.34
2022-09-09T09:36:42.316Z,94973.72
2022-09-09T09:42:18.899Z,94969.25
2022-09-09T09:44:50.986Z,94971.53
2022-09-09T09:47:24.549Z,94971.88
2022-09-09T09:50:03.596Z,94973.47
2022-09-09T09:52:37.717Z,94968.66
2022-09-09T09:55:14.943Z,94973.50
2022-09-09T09:57:42.816Z,94972.69
2022-09-09T10:00:18.517Z,94973.72
2022-09-09T10:02:53.704Z,94974.28
2022-09-09T10:05:28.492Z,94973.72
2022-09-09T10:08:14.590Z,94977.72
2022-09-09T10:10:52.785Z,94977.56
2022-09-09T10:13:50.866Z,94975.56
2022-09-09T10:16:31.024Z,94976.41
2022-09-09T10:19:21.643Z,94977.34
2022-09-09T10:22:00.231Z,94976.75
2022-09-09T10:24:42.449Z,94973.94
2022-09-09T10:27:29.869Z,94974.31
2022-09-09T10:30:12.274Z,94966.69
2022-09-09T10:32:53.412Z,94967.16
2022-09-09T10:35:40.606Z,94968.41
2022-09-09T10:38:30.946Z,94971.44
2022-09-09T10:40:57.520Z,94967.06
2022-09-09T10:43:42.271Z,94965.69
2022-09-09T10:46:23.985Z,94966.13
2022-09-09T10:49:22.834Z,94968.97
2022-09-09T10:52:00.062Z,94972.19
2022-09-09T10:54:50.063Z,94970.97
2022-09-09T10:57:33.017Z,94969.44
2022-09-09T11:00:08.072Z,94972.03
2022-09-09T11:02:35.593Z,94972.00
2022-09-09T11:05:08.919Z,94967.81
2022-09-09T11:07:46.163Z,94960.25
2022-09-09T11:10:25.281Z,94970.28
2022-09-09T11:12:59.239Z,94963.94
2022-09-09T11:15:34.219Z,94960.16
2022-09-09T11:18:05.211Z,94957.34
2022-09-09T11:20:33.127Z,94955.31
2022-09-09T11:23:10.968Z,94958.91
2022-09-09T11:25:42.755Z,94956.88
2022-09-09T11:28:25.687Z,94956.56
2022-09-09T11:31:20.310Z,94961.50
2022-09-09T11:33:52.682Z,94956.44
2022-09-09T11:36:43.975Z,94960.56
2022-09-09T11:39:13.477Z,94956.22
2022-09-09T11:41:40.155Z,94948.53
2022-09-09T11:44:17.999Z,94959.56
2022-09-09T11:46:50.928Z,94958.84
2022-09-09T11:49:38.874Z,94962.28
2022-09-09T11:52:32.844Z,94955.59
2022-09-09T11:55:33.995Z,94958.75
2022-09-09T11:58:02.593Z,94960.03
2022-09-09T12:00:38.135Z,94958.09
2022-09-09T12:03:43.742Z,94958.31
2022-09-09T12:06:19.368Z,94963.28
2022-09-09T12:08:52.145Z,94964.94
2022-09-09T12:11:30.084Z,94961.88
2022-09-09T12:14:00.521Z,94969.34
2022-09-09T12:16:35.984Z,94961.09
2022-09-09T12:19:22.143Z,94960.94
2022-09-09T12:22:18.485Z,94960.31
2022-09-09T12:24:53.553Z,94956.53
2022-09-09T12:27:32.565Z,94953.91
2022-09-09T12:30:11.700Z,94950.28
2022-09-09T12:32:39.039Z,94952.94
2022-09-09T12:35:28.709Z,94947.06
2022-09-09T12:38:03.474Z,94949.91
2022-09-09T12:40:35.975Z,94950.47
2022-09-09T12:43:23.302Z,94949.44
2022-09-09T12:45:58.642Z,94947.97
2022-09-09T12:48:43.619Z,94947.22
2022-09-09T12:51:26.211Z,94943.28
2022-09-09T12:53:53.183Z,94946.66
2022-09-09T12:56:30.042Z,94938.19
2022-09-09T12:58:59.194Z,94943.25
2022-09-09T13:01:26.878Z,94934.34
2022-09-09T13:03:54.012Z,94928.88
2022-09-09T13:06:28.802Z,94928.06
2022-09-09T13:08:57.793Z,94926.09
2022-09-09T13:11:36.339Z,94922.84
2022-09-09T13:14:03.613Z,94923.50
2022-09-09T13:16:33.403Z,94919.31
2022-09-09T13:19:07.836Z,94918.09
2022-09-09T13:21:39.674Z,94909.69
2022-09-09T13:24:23.424Z,94915.31
2022-09-09T13:27:04.689Z,94907.28
2022-09-09T13:29:32.468Z,94907.88
2022-09-09T13:32:18.280Z,94905.44
2022-09-09T13:34:59.718Z,94909.06
2022-09-09T13:37:38.175Z,94901.66
2022-09-09T13:40:07.579Z,94908.88
2022-09-09T13:42:40.130Z,94907.06
2022-09-09T13:45:07.334Z,94905.44
2022-09-09T13:47:38.154Z,94893.19
2022-09-09T13:50:22.064Z,94893.59
2022-09-09T13:52:50.772Z,94894.81
2022-09-09T13:55:17.329Z,94898.41
2022-09-09T13:57:56.006Z,94900.81
2022-09-09T14:00:25.054Z,94892.16
2022-09-09T14:02:52.296Z,94897.94
2022-09-09T14:05:19.679Z,94894.75
2022-09-09T14:07:50.069Z,94894.13
2022-09-09T14:10:19.245Z,94906.19
2022-09-09T14:12:45.786Z,94897.53
2022-09-09T14:15:12.930Z,94900.78
2022-09-09T14:17:40.298Z,94894.97
2022-09-09T14:20:12.826Z,94890.38
2022-09-09T14:22:40.318Z,94891.75
2022-09-09T14:25:07.526Z,94886.34
2022-09-09T14:27:34.452Z,94889.75
2022-09-09T14:30:01.911Z,94891.38
2022-09-09T14:32:28.767Z,94885.53
2022-09-09T14:34:55.366Z,94890.94
2022-09-09T14:37:22.032Z,94889.34
2022-09-09T14:39:51.329Z,94891.16
2022-09-09T14:42:18.223Z,94891.38
2022-09-09T14:44:44.785Z,94892.38
2022-09-09T14:47:11.384Z,94892.41
2022-09-09T14:49:39.819Z,94891.16
2022-09-09T14:52:10.485Z,94899.66
2022-09-09T14:54:37.204Z,94905.44
2022-09-09T14:57:03.973Z,94899.41
2022-09-09T14:59:30.516Z,94903.47
2022-09-09T15:01:57.531Z,94897.34
2022-09-09T15:04:24.130Z,94894.94
2022-09-09T15:06:53.349Z,94884.78
2022-09-09T15:09:19.885Z,94889.66
2022-09-09T15:11:46.596Z,94889.97
2022-09-09T15:14:13.232Z,94893.06
2022-09-09T15:16:40.829Z,94881.28
2022-09-09T15:19:07.729Z,94877.47
2022-09-09T15:21:36.976Z,94872.88
2022-09-09T15:24:08.237Z,94872.91
2022-09-09T15:26:36.415Z,94879.31
2022-09-09T15:29:03.148Z,94870.06
2022-09-09T15:31:31.543Z,94871.69
2022-09-09T15:34:03.988Z,94879.50
2022-09-09T15:36:33.287Z,94868.84
2022-09-09T15:39:01.295Z,94874.09
2022-09-09T15:41:28.832Z,94878.53
2022-09-09T15:44:01.330Z,94879.50
2022-09-09T15:46:43.145Z,94877.91
2022-09-09T15:49:22.956Z,94867.78
2022-09-09T15:52:07.693Z,94875.91
2022-09-09T15:54:36.633Z,94874.03
2022-09-09T15:57:05.179Z,94867.19
2022-09-09T15:59:33.242Z,94858.28
2022-09-09T16:02:01.088Z,94864.16
2022-09-09T16:04:29.890Z,94867.44
2022-09-09T16:07:01.920Z,94867.28
2022-09-09T16:09:29.678Z,94865.84
2022-09-09T16:12:07.265Z,94864.22
2022-09-09T16:14:37.150Z,94856.81
2022-09-09T16:17:06.063Z,94855.78
2022-09-09T16:19:33.585Z,94855.63
2022-09-09T16:22:00.211Z,94848.97
2022-09-09T16:24:27.665Z,94849.78
2022-09-09T16:26:55.794Z,94848.78
2022-09-09T16:29:23.800Z,94846.34
2022-09-09T16:31:51.283Z,94844.13
2022-09-09T16:34:19.177Z,94842.09
2022-09-09T16:36:46.961Z,94848.72
2022-09-09T16:39:18.432Z,94852.34
2022-09-09T16:41:48.199Z,94841.06
2022-09-09T16:44:17.855Z,94842.91
2022-09-09T16:46:45.349Z,94844.44
2022-09-09T16:49:14.437Z,94847.22
2022-09-09T16:51:49.194Z,94833.41
2022-09-09T16:54:18.103Z,94836.78
2022-09-09T16:56:47.346Z,94840.59
2022-09-09T16:59:19.016Z,94838.38
2022-09-09T17:01:47.936Z,94845.56
2022-09-09T17:04:21.222Z,94843.72
2022-09-09T17:06:52.640Z,94845.72
2022-09-09T17:09:20.589Z,94841.22
2022-09-09T17:11:48.848Z,94847.25
2022-09-09T17:14:18.491Z,94845.22
2022-09-09T17:16:45.360Z,94850.16
2022-09-09T17:19:13.305Z,94845.97
2022-09-09T17:22:00.141Z,94847.28
2022-09-09T17:24:29.946Z,94849.03
2022-09-09T17:26:57.122Z,94852.78
2022-09-09T17:29:23.655Z,94852.78
2022-09-09T17:31:50.348Z,94856.16
2022-09-09T17:34:16.954Z,94857.38
2022-09-09T17:36:43.487Z,94858.75
2022-09-09T17:39:10.439Z,94863.53
2022-09-09T17:41:39.657Z,94867.72
2022-09-09T17:46:44.062Z,94877.38
2022-09-09T17:49:13.359Z,94874.94
2022-09-09T17:51:42.505Z,94882.31
2022-09-09T17:54:15.252Z,94876.72
2022-09-09T17:56:42.439Z,94882.47
2022-09-09T17:59:10.820Z,94882.47
2022-09-09T18:01:40.238Z,94884.84
2022-09-09T18:04:09.493Z,94882.97
2022-09-09T18:06:41.567Z,94888.94
2022-09-09T18:09:13.233Z,94892.91
2022-09-09T18:11:45.345Z,94887.44
2022-09-09T18:14:16.265Z,94891.91
2022-09-09T18:16:42.907Z,94896.13
2022-09-09T18:19:13.882Z,94893.53
2022-09-09T18:21:42.092Z,94904.03
2022-09-09T18:24:10.610Z,94904.84
2022-09-09T18:26:37.761Z,94912.94
2022-09-09T18:29:11.072Z,94917.56
2022-09-09T18:31:38.037Z,94924.38
2022-09-09T18:34:07.505Z,94922.94
2022-09-09T18:36:44.711Z,94929.50
2022-09-09T18:39:13.543Z,94922.69
2022-09-09T18:41:46.569Z,94930.59
2022-09-09T18:44:20.716Z,94930.59
2022-09-09T18:46:48.306Z,94927.72
2022-09-09T18:49:17.035Z,94931.66
2022-09-09T18:51:46.369Z,94935.19
2022-09-09T18:54:21.960Z,94933.84
2022-09-09T18:56:49.310Z,94935.00
2022-09-09T18:59:21.945Z,94938.22
2022-09-09T19:01:50.557Z,94933.91
2022-09-09T19:04:18.415Z,94948.00
2022-09-09T19:06:47.554Z,94955.16
2022-09-09T19:09:16.526Z,94973.38
2022-09-09T19:11:44.320Z,94978.25
2022-09-09T19:14:13.286Z,94977.69
2022-09-09T19:16:40.582Z,94981.63
2022-09-09T19:19:14.822Z,95011.03
2022-09-09T19:21:42.186Z,95015.00
2022-09-09T19:24:20.823Z,95019.19
2022-09-09T19:26:50.114Z,95024.78
2022-09-09T19:29:20.923Z,95024.84
2022-09-09T19:32:18.603Z,95026.06
2022-09-09T19:34:37.361Z,95028.28
2022-09-09T19:37:04.877Z,95035.53
2022-09-09T19:39:34.340Z,95028.59
2022-09-09T19:42:01.808Z,95031.53
2022-09-09T19:44:28.558Z,95028.03
2022-09-09T19:46:55.559Z,95026.25
2022-09-09T19:49:22.222Z,95027.78
2022-09-09T19:51:48.762Z,95032.16
2022-09-09T19:54:15.376Z,95035.03
2022-09-09T19:56:43.092Z,95036.03
2022-09-09T19:59:12.428Z,95034.06
2022-09-09T20:01:46.908Z,95036.03
2022-09-09T20:04:14.703Z,95026.69
2022-09-09T20:06:44.339Z,95031.00
2022-09-09T20:09:16.912Z,95038.00
2022-09-09T20:11:45.013Z,95037.72
2022-09-09T20:14:12.072Z,95051.03
2022-09-09T20:16:39.623Z,95039.41
2022-09-09T20:19:10.180Z,95035.00
2022-09-09T20:21:47.245Z,95037.78
2022-09-09T20:24:16.209Z,95036.84
2022-09-09T20:26:42.792Z,95042.84
2022-09-09T20:29:15.798Z,95047.41
2022-09-09T20:31:43.880Z,95041.22
2022-09-09T20:34:13.390Z,95039.53
2022-09-09T20:36:41.352Z,95046.66
2022-09-09T20:39:20.497Z,95041.41
2022-09-09T20:41:47.816Z,95042.34
2022-09-09T20:44:20.030Z,95052.69
2022-09-09T20:46:48.374Z,95049.44
2022-09-09T20:49:17.178Z,95054.47
2022-09-09T20:51:44.287Z,95064.13
2022-09-09T20:54:14.112Z,95064.41
2022-09-09T20:56:42.760Z,95077.75
2022-09-09T20:59:14.858Z,95079.47
2022-09-09T21:01:42.045Z,95091.00
2022-09-09T21:04:09.719Z,95126.63
2022-09-09T21:06:37.045Z,95130.13
2022-09-09T21:09:03.947Z,95148.84
2022-09-09T21:11:30.594Z,95147.75
2022-09-09T21:13:57.142Z,95131.47
2022-09-09T21:16:23.904Z,95118.44
2022-09-09T21:18:50.523Z,95104.59
2022-09-09T21:21:21.191Z,95101.25
2022-09-09T21:23:49.224Z,95101.91
2022-09-09T21:26:17.780Z,95115.53
2022-09-09T21:28:44.331Z,95124.81
2022-09-09T21:31:16.934Z,95124.50
2022-09-09T21:33:43.647Z,95119.63
2022-09-09T21:36:12.202Z,95121.94
2022-09-09T21:38:42.493Z,95110.44
2022-09-09T21:41:13.026Z,95111.41
2022-09-09T21:43:41.861Z,95098.28
2022-09-09T21:46:10.202Z,95102.50
2022-09-09T21:48:36.893Z,95099.28
2022-09-09T21:51:09.818Z,95095.56
2022-09-09T21:53:36.965Z,95090.69
2022-09-09T21:56:10.183Z,95092.31
2022-09-09T21:58:37.527Z,95100.09
2022-09-09T22:01:13.287Z,95110.75
2022-09-09T22:03:42.396Z,95117.91
2022-09-09T22:06:11.617Z,95119.19
2022-09-09T22:08:38.317Z,95122.09
2022-09-09T22:11:07.814Z,95124.06
2022-09-09T22:13:35.772Z,95119.03
2022-09-09T22:16:07.743Z,95121.94
2022-09-09T22:18:34.644Z,95113.34
2022-09-09T22:21:10.129Z,95110.44
2022-09-09T22:23:36.792Z,95116.91
2022-09-09T22:26:06.280Z,95117.72
2022-09-09T22:28:34.501Z,95113.16
2022-09-09T22:31:01.426Z,95122.84
2022-09-09T22:33:28.036Z,95112.50
2022-09-09T22:35:54.691Z,95113.28
2022-09-09T22:38:22.265Z,95109.38
2022-09-09T22:40:49.544Z,95107.91
2022-09-09T22:43:21.157Z,95108.41
2022-09-09T22:45:48.566Z,95109.88
2022-09-09T22:48:16.018Z,95115.69
2022-09-09T22:50:42.907Z,95114.03
2022-09-09T22:53:14.387Z,95106.44
2022-09-09T22:55:41.009Z,95111.78
2022-09-09T22:58:07.738Z,95102.69
2022-09-09T23:00:34.386Z,95100.94
2022-09-09T23:03:01.255Z,95099.00
2022-09-09T23:05:27.789Z,95093.34
2022-09-09T23:07:58.281Z,95100.47
2022-09-09T23:10:25.537Z,95090.16
2022-09-09T23:12:52.388Z,95086.59
2022-09-09T23:15:19.832Z,95082.19
2022-09-09T23:17:46.588Z,95083.31
2022-09-09T23:20:13.586Z,95078.31
2022-09-09T23:22:40.572Z,95079.31
2022-09-09T23:25:07.704Z,95080.44
2022-09-09T23:27:35.633Z,95075.75
2022-09-09T23:30:02.247Z,95079.13
2022-09-09T23:32:28.806Z,95073.94
2022-09-09T23:34:55.766Z,95068.31
2022-09-09T23:37:22.460Z,95065.06
2022-09-09T23:39:49.083Z,95072.00
2022-09-09T23:42:15.723Z,95072.63
2022-09-09T23:44:42.819Z,95065.13
2022-09-09T23:47:09.471Z,95063.88
2022-09-09T23:49:39.202Z,95071.28
2022-09-09T23:52:06.658Z,95065.69
2022-09-09T23:54:34.703Z,95072.16
2022-09-09T23:57:03.046Z,95075.03
2022-09-09T23:59:34.914Z,95077.41
